Time;durP1;ratioP1;P1;durP2;ratioP2;P2;SDS_P1;SDS_P2;PMS_P1;PMS_P2;Temp;Humidity;BMP_temperature;BMP_pressure;BME280_temperature;BME280_humidity;BME280_pressure;Samples;Min_cycle;Max_cycle;Signal;HPM_P1;HPM_P2
2022/09/13 00:02:21;;;;;;;3.20;0.88;;;;;;;16.88;61.74;98726.31;5052615;28;20040;-62
2022/09/13 00:05:06;;;;;;;1.63;0.88;;;;;;;16.87;61.81;98729.94;5052802;28;20033;-62
2022/09/13 00:07:51;;;;;;;1.70;0.90;;;;;;;16.64;62.74;98722.38;5045762;28;20049;-61
2022/09/13 00:10:37;;;;;;;2.08;1.10;;;;;;;16.76;62.71;98715.09;5034644;28;20067;-60
2022/09/13 00:13:22;;;;;;;1.88;0.65;;;;;;;16.90;62.27;98723.50;5052911;28;20036;-60
2022/09/13 00:16:16;;;;;;;1.15;0.68;;;;;;;16.88;63.51;98721.00;5052715;28;20669;-61
2022/09/13 00:19:00;;;;;;;1.35;0.80;;;;;;;16.79;61.99;98720.09;5054666;28;20114;-61
2022/09/13 00:21:45;;;;;;;1.45;0.70;;;;;;;16.60;62.67;98721.84;5050681;28;20033;-62
2022/09/13 00:24:29;;;;;;;1.85;0.88;;;;;;;16.44;63.08;98711.88;5037585;28;20048;-62
2022/09/13 00:27:14;;;;;;;1.67;0.80;;;;;;;16.57;62.32;98716.84;5051939;28;20467;-61
2022/09/13 00:29:59;;;;;;;0.90;0.60;;;;;;;16.71;62.75;98725.28;5028795;28;20067;-62
2022/09/13 00:32:44;;;;;;;1.20;0.80;;;;;;;16.68;62.32;98715.00;5051975;28;20037;-61
2022/09/13 00:35:28;;;;;;;2.00;1.17;;;;;;;16.56;63.53;98709.91;5027848;28;20077;-63
2022/09/13 00:38:13;;;;;;;1.58;0.85;;;;;;;16.64;63.94;98714.44;5049628;28;20045;-62
2022/09/13 00:40:58;;;;;;;1.52;1.00;;;;;;;16.58;63.11;98712.38;5034020;28;20029;-62
2022/09/13 00:43:52;;;;;;;1.67;0.80;;;;;;;16.41;62.86;98698.94;5044753;28;21543;-62
2022/09/13 00:46:40;;;;;;;1.63;0.90;;;;;;;16.45;63.50;98699.50;5052884;28;20037;-62
2022/09/13 00:49:35;;;;;;;1.83;0.80;;;;;;;16.73;63.26;98704.78;5029342;28;20106;-62
2022/09/13 00:52:24;;;;;;;1.52;0.70;;;;;;;16.72;61.43;98703.13;5048344;28;20156;-63
2022/09/13 00:55:15;;;;;;;1.38;0.80;;;;;;;16.68;63.28;98697.28;5022430;28;20058;-62
2022/09/13 00:58:15;;;;;;;1.45;0.95;;;;;;;16.54;63.36;98695.97;5038009;28;20397;-61
2022/09/13 01:01:02;;;;;;;2.17;0.82;;;;;;;16.24;61.81;98695.22;5050074;28;20124;-62
2022/09/13 01:03:48;;;;;;;1.65;0.90;;;;;;;16.25;63.89;98689.81;5052009;28;20041;-61
2022/09/13 01:06:36;;;;;;;1.00;0.70;;;;;;;16.46;64.46;98685.28;5047550;28;20072;-61
2022/09/13 01:09:21;;;;;;;2.70;0.85;;;;;;;16.43;60.98;98685.59;5051624;28;20044;-61
2022/09/13 01:12:30;;;;;;;1.40;0.80;;;;;;;16.40;64.57;98685.88;5049279;28;20068;-63
2022/09/13 01:15:15;;;;;;;2.60;0.95;;;;;;;16.28;64.52;98688.69;5048006;28;21318;-61
2022/09/13 01:18:00;;;;;;;1.30;0.80;;;;;;;16.38;63.31;98686.03;5052055;28;20106;-62
2022/09/13 01:20:50;;;;;;;1.42;0.70;;;;;;;16.45;63.51;98681.00;5052463;28;20033;-61
2022/09/13 01:24:13;;;;;;;1.33;0.90;;;;;;;16.62;63.37;98689.94;5035853;28;20041;-61
2022/09/13 01:27:23;;;;;;;2.42;0.75;;;;;;;16.54;63.50;98680.13;5052756;28;20491;-61
2022/09/13 01:30:11;;;;;;;3.03;0.83;;;;;;;16.48;63.67;98676.22;5050096;28;20111;-62
2022/09/13 01:33:23;;;;;;;1.55;0.95;;;;;;;16.49;63.69;98677.06;5036712;28;20074;-61
2022/09/13 01:36:19;;;;;;;1.50;0.60;;;;;;;16.63;63.04;98675.75;5045770;28;20545;-61
2022/09/13 01:39:10;;;;;;;1.40;0.90;;;;;;;16.55;64.25;98667.75;5050700;28;20033;-61
2022/09/13 01:42:04;;;;;;;1.92;0.90;;;;;;;16.57;63.00;98668.41;5050931;28;20111;-61
2022/09/13 01:45:03;;;;;;;1.75;0.90;;;;;;;16.57;63.13;98668.41;5051668;28;20033;-63
2022/09/13 01:48:14;;;;;;;2.03;0.75;;;;;;;16.70;60.81;98660.13;5044935;28;20059;-60
2022/09/13 01:51:08;;;;;;;1.58;1.00;;;;;;;16.40;64.52;98652.34;5041727;28;20049;-61
2022/09/13 01:54:14;;;;;;;3.35;1.20;;;;;;;16.32;63.78;98658.34;5050707;28;20132;-62
2022/09/13 01:57:19;;;;;;;1.88;1.00;;;;;;;16.55;63.56;98659.81;5051422;28;20057;-60
2022/09/13 02:00:12;;;;;;;3.10;1.10;;;;;;;16.63;63.91;98654.59;5046457;28;20037;-62
2022/09/13 02:02:59;;;;;;;2.47;0.80;;;;;;;16.65;62.83;98657.13;5024728;28;20071;-61
2022/09/13 02:05:51;;;;;;;1.63;0.85;;;;;;;16.22;64.01;98649.63;5042555;28;20045;-62
2022/09/13 02:08:44;;;;;;;1.45;0.80;;;;;;;15.84;66.63;98642.47;5033689;28;20033;-62
2022/09/13 02:11:31;;;;;;;1.35;0.80;;;;;;;16.04;65.79;98649.56;5048254;28;20091;-61
2022/09/13 02:14:20;;;;;;;2.58;0.93;;;;;;;16.44;65.57;98651.06;5049933;28;20417;-62
2022/09/13 02:17:11;;;;;;;2.70;0.93;;;;;;;16.49;63.23;98654.13;5050998;28;20048;-61
2022/09/13 02:20:02;;;;;;;1.57;0.83;;;;;;;15.84;65.07;98641.63;5040446;28;20043;-60
2022/09/13 02:22:55;;;;;;;1.60;0.80;;;;;;;15.92;66.12;98638.28;5050086;28;20287;-61
2022/09/13 02:25:40;;;;;;;2.33;0.85;;;;;;;15.88;67.02;98633.28;5050573;28;20052;-61
2022/09/13 02:28:34;;;;;;;2.30;0.95;;;;;;;16.05;66.39;98632.72;5050793;28;20087;-63
2022/09/13 02:31:33;;;;;;;1.77;1.05;;;;;;;15.99;66.75;98634.13;5051044;28;20041;-61
2022/09/13 02:34:22;;;;;;;2.17;1.00;;;;;;;15.84;67.77;98631.06;5032679;28;20053;-60
2022/09/13 02:37:08;;;;;;;1.67;0.95;;;;;;;15.93;67.32;98629.41;5051054;28;20037;-61
2022/09/13 02:39:58;;;;;;;1.30;0.80;;;;;;;15.86;67.25;98623.84;5051194;28;20064;-61
2022/09/13 02:42:52;;;;;;;1.45;0.90;;;;;;;16.11;66.81;98617.13;5041478;28;20136;-61
2022/09/13 02:46:06;;;;;;;2.22;0.90;;;;;;;16.28;65.81;98622.63;5013319;28;20033;-62
2022/09/13 02:49:06;;;;;;;1.65;0.95;;;;;;;16.32;65.20;98621.34;5038916;28;20500;-61
2022/09/13 02:52:01;;;;;;;3.08;1.00;;;;;;;16.06;65.92;98621.19;5016304;28;20095;-62
2022/09/13 02:55:13;;;;;;;2.88;0.90;;;;;;;15.99;66.59;98616.47;5039318;28;20084;-61
2022/09/13 02:58:21;;;;;;;1.65;0.85;;;;;;;15.64;66.73;98610.84;5047048;28;20045;-61
2022/09/13 03:01:06;;;;;;;1.20;0.90;;;;;;;15.66;66.94;98615.13;5039647;28;20427;-61
2022/09/13 03:03:53;;;;;;;1.50;1.00;;;;;;;15.86;66.13;98616.75;5046100;28;20057;-62
2022/09/13 03:06:39;;;;;;;1.52;0.90;;;;;;;15.81;65.64;98608.44;5046607;28;20040;-61
2022/09/13 03:09:24;;;;;;;2.10;0.90;;;;;;;15.73;66.94;98603.84;5041835;28;20061;-61
2022/09/13 03:12:14;;;;;;;1.95;1.10;;;;;;;15.68;67.58;98598.19;5045029;28;20052;-61
2022/09/13 03:15:05;;;;;;;2.53;0.95;;;;;;;15.99;66.92;98600.59;5028552;28;20069;-61
2022/09/13 03:18:10;;;;;;;2.30;1.10;;;;;;;16.12;65.97;98597.63;5045549;28;20048;-61
2022/09/13 03:21:24;;;;;;;1.83;1.00;;;;;;;16.24;65.47;98597.44;5044785;28;20036;-62
2022/09/13 03:24:23;;;;;;;2.05;1.10;;;;;;;16.42;65.53;98594.06;5049671;28;20033;-61
2022/09/13 03:27:43;;;;;;;2.13;0.88;;;;;;;16.50;65.00;98596.75;5034283;28;20107;-63
2022/09/13 03:30:30;;;;;;;1.77;1.15;;;;;;;16.38;65.44;98591.72;5014764;28;20037;-62
2022/09/13 03:33:43;;;;;;;3.55;1.20;;;;;;;16.11;65.13;98595.13;5046389;28;20076;-63
2022/09/13 03:36:40;;;;;;;1.67;1.15;;;;;;;15.76;66.87;98590.38;5052482;28;20072;-63
2022/09/13 03:39:38;;;;;;;4.78;1.30;;;;;;;15.80;68.06;98580.34;5032271;28;20037;-61
2022/09/13 03:42:31;;;;;;;3.05;1.33;;;;;;;15.92;66.47;98588.09;5051449;28;20123;-63
2022/09/13 03:45:24;;;;;;;3.88;1.70;;;;;;;15.97;67.40;98589.34;5054535;28;20041;-61
2022/09/13 03:48:44;;;;;;;2.58;1.20;;;;;;;16.37;65.55;98587.38;5041627;28;20087;-62
2022/09/13 03:51:28;;;;;;;2.55;1.20;;;;;;;16.27;66.14;98583.97;5049843;28;20041;-61
2022/09/13 03:54:23;;;;;;;2.35;1.20;;;;;;;16.20;65.54;98590.81;5028543;28;20075;-62
2022/09/13 03:57:12;;;;;;;2.13;1.17;;;;;;;16.29;66.03;98587.28;5048007;28;20037;-62
2022/09/13 03:59:57;;;;;;;2.70;1.08;;;;;;;16.19;65.48;98579.41;5038204;28;20052;-64
2022/09/13 04:02:41;;;;;;;3.80;1.40;;;;;;;16.30;66.25;98577.53;5024612;28;20123;-63
2022/09/13 04:05:26;;;;;;;2.03;1.13;;;;;;;16.29;66.32;98578.53;5034464;28;20459;-62
2022/09/13 04:08:11;;;;;;;1.75;1.00;;;;;;;16.64;65.69;98587.50;5051778;28;20049;-62
2022/09/13 04:10:57;;;;;;;1.92;1.08;;;;;;;16.48;65.79;98583.69;5042835;28;20092;-61
2022/09/13 04:13:41;;;;;;;2.70;1.05;;;;;;;16.48;65.69;98581.06;5053017;28;20720;-62
2022/09/13 04:16:26;;;;;;;2.35;1.10;;;;;;;16.41;64.64;98584.44;5040030;28;20052;-62
2022/09/13 04:19:13;;;;;;;1.73;1.17;;;;;;;16.34;65.85;98589.47;5034109;28;20468;-62
2022/09/13 04:21:58;;;;;;;3.00;1.35;;;;;;;16.38;66.20;98593.50;5051813;28;20095;-64
2022/09/13 04:24:43;;;;;;;1.85;1.15;;;;;;;16.42;65.98;98596.69;5042418;28;20139;-61
2022/09/13 04:27:27;;;;;;;2.80;1.08;;;;;;;16.19;67.01;98605.81;5047014;28;20094;-61
2022/09/13 04:30:16;;;;;;;5.78;1.25;;;;;;;16.26;66.75;98595.50;5033207;28;20040;-63
2022/09/13 04:33:01;;;;;;;5.40;1.70;;;;;;;16.36;68.23;98600.75;5025881;28;20049;-62
2022/09/13 04:35:46;;;;;;;4.95;2.10;;;;;;;16.21;68.55;98610.97;5027383;28;20058;-63
2022/09/13 04:38:30;;;;;;;5.68;1.40;;;;;;;15.99;69.14;98607.72;5022415;28;20111;-63
2022/09/13 04:41:16;;;;;;;6.25;2.03;;;;;;;16.15;69.97;98609.75;5047047;28;20095;-63
2022/09/13 04:44:03;;;;;;;6.00;2.40;;;;;;;16.22;68.99;98610.00;5052683;28;20043;-64
2022/09/13 04:46:50;;;;;;;5.10;1.83;;;;;;;16.00;69.74;98612.00;5036123;28;20029;-63
2022/09/13 04:49:35;;;;;;;4.57;2.13;;;;;;;15.84;69.85;98605.50;5019439;28;20151;-64
2022/09/13 04:52:20;;;;;;;3.45;1.90;;;;;;;15.41;70.75;98605.03;5046271;28;20116;-64
2022/09/13 04:55:05;;;;;;;4.78;2.13;;;;;;;15.60;71.17;98613.91;5051580;28;20041;-63
2022/09/13 04:57:55;;;;;;;6.82;2.53;;;;;;;16.18;72.95;98613.91;5041425;28;20067;-65
2022/09/13 05:00:39;;;;;;;8.60;2.00;;;;;;;16.25;71.66;98613.16;5052128;28;20053;-63
2022/09/13 05:03:24;;;;;;;5.45;1.90;;;;;;;16.86;68.26;98611.84;5045048;28;20064;-62
2022/09/13 05:06:13;;;;;;;5.28;2.15;;;;;;;16.69;66.78;98603.78;5039297;28;20048;-62
2022/09/13 05:08:58;;;;;;;4.82;1.67;;;;;;;16.32;65.48;98605.47;5042196;28;20044;-64
2022/09/13 05:11:42;;;;;;;4.05;1.80;;;;;;;15.25;70.05;98595.88;5021885;28;20041;-63
2022/09/13 05:14:27;;;;;;;6.13;2.53;;;;;;;15.63;69.26;98597.78;5052096;28;20033;-63
2022/09/13 05:17:12;;;;;;;8.07;2.65;;;;;;;15.56;73.03;98605.41;5036815;28;20045;-64
2022/09/13 05:19:57;;;;;;;5.15;2.50;;;;;;;14.60;71.25;98615.63;5050939;28;20077;-62
2022/09/13 05:22:41;;;;;;;6.78;2.17;;;;;;;14.66;76.02;98615.09;5035205;28;20074;-63
2022/09/13 05:25:26;;;;;;;4.72;2.60;;;;;;;14.69;72.13;98621.06;5036041;28;20539;-63
2022/09/13 05:28:11;;;;;;;4.93;2.65;;;;;;;14.31;74.71;98618.16;5035714;28;20033;-63
2022/09/13 05:30:55;;;;;;;4.03;2.67;;;;;;;14.33;75.31;98624.97;5051028;28;20392;-63
2022/09/13 05:33:40;;;;;;;5.35;2.80;;;;;;;14.92;73.87;98619.03;5050352;28;20044;-64
2022/09/13 05:36:26;;;;;;;4.45;2.80;;;;;;;14.75;73.38;98617.88;5045330;28;20124;-64
2022/09/13 05:39:16;;;;;;;4.53;3.13;;;;;;;14.25;74.38;98622.16;5051425;28;20094;-63
2022/09/13 05:42:01;;;;;;;4.63;2.45;;;;;;;14.39;77.85;98610.44;5052217;28;20053;-63
2022/09/13 05:44:46;;;;;;;3.72;2.10;;;;;;;14.43;73.96;98614.47;5052403;28;20427;-63
2022/09/13 05:47:30;;;;;;;4.28;2.58;;;;;;;14.64;72.85;98616.16;5044341;28;20072;-63
2022/09/13 05:50:15;;;;;;;4.22;2.83;;;;;;;14.19;73.34;98617.41;5049091;28;20036;-64
2022/09/13 05:52:59;;;;;;;8.40;3.20;;;;;;;15.01;72.54;98620.84;5049975;28;20037;-64
2022/09/13 05:55:44;;;;;;;7.15;3.45;;;;;;;14.95;71.25;98617.94;5050168;28;20131;-63
2022/09/13 05:58:29;;;;;;;8.18;4.40;;;;;;;14.63;73.36;98612.72;5032239;28;20043;-63
2022/09/13 06:01:17;;;;;;;7.35;4.25;;;;;;;14.02;76.57;98622.31;5050397;28;20658;-64
2022/09/13 06:04:01;;;;;;;5.05;3.20;;;;;;;13.92;77.37;98615.22;5030038;28;20040;-64
2022/09/13 06:06:46;;;;;;;6.65;3.10;;;;;;;14.15;78.52;98612.41;5044170;28;20037;-63
2022/09/13 06:09:31;;;;;;;6.57;3.47;;;;;;;14.98;73.91;98613.22;5035023;28;20049;-63
2022/09/13 06:12:15;;;;;;;5.15;3.25;;;;;;;14.72;74.63;98612.88;5035554;28;20036;-63
2022/09/13 06:15:00;;;;;;;11.70;6.22;;;;;;;15.38;72.03;98607.94;5051771;28;20041;-63
2022/09/13 06:17:45;;;;;;;6.60;3.83;;;;;;;15.06;73.23;98612.53;5050559;28;20196;-64
2022/09/13 06:20:29;;;;;;;6.65;3.15;;;;;;;15.28;72.45;98613.22;5051048;28;20057;-65
2022/09/13 06:23:14;;;;;;;6.15;3.00;;;;;;;15.86;70.05;98614.09;5046121;28;20479;-64
2022/09/13 06:26:01;;;;;;;4.13;2.55;;;;;;;16.19;69.95;98612.94;5049705;28;20427;-64
2022/09/13 06:28:47;;;;;;;4.60;2.95;;;;;;;16.05;68.95;98609.78;5050262;28;20425;-65
2022/09/13 06:31:32;;;;;;;5.72;3.13;;;;;;;16.33;68.78;98616.91;5033026;28;20041;-63
2022/09/13 06:34:17;;;;;;;6.25;3.80;;;;;;;15.59;70.47;98622.78;5048507;28;20033;-64
2022/09/13 06:37:02;;;;;;;8.88;3.90;;;;;;;15.56;72.45;98623.91;5034287;28;20056;-64
2022/09/13 06:39:47;;;;;;;7.13;4.57;;;;;;;14.95;73.65;98625.84;5049662;28;20468;-64
2022/09/13 06:42:35;;;;;;;5.45;3.95;;;;;;;15.22;72.99;98619.06;5034868;28;20514;-64
2022/09/13 06:45:20;;;;;;;14.93;5.22;;;;;;;16.31;71.20;98621.50;5050616;28;20045;-61
2022/09/13 06:48:05;;;;;;;7.28;3.83;;;;;;;16.04;70.63;98623.97;5051291;28;20124;-64
2022/09/13 06:50:50;;;;;;;6.53;3.25;;;;;;;16.20;67.88;98623.34;5029494;28;20029;-61
2022/09/13 06:53:35;;;;;;;6.43;3.20;;;;;;;15.42;71.01;98625.19;5048232;28;20119;-60
2022/09/13 06:56:33;;;;;;;6.50;3.25;;;;;;;15.82;68.78;98611.88;5045547;28;20434;-62
2022/09/13 06:59:18;;;;;;;5.30;2.70;;;;;;;16.36;66.15;98616.59;5049447;28;20044;-64
2022/09/13 07:02:03;;;;;;;3.78;2.45;;;;;;;16.19;65.40;98611.09;5050856;28;20094;-65
2022/09/13 07:04:47;;;;;;;3.30;2.47;;;;;;;16.65;62.74;98615.63;5044644;28;20033;-65
2022/09/13 07:07:32;;;;;;;9.00;3.30;;;;;;;15.87;65.53;98610.50;5049438;28;20479;-65
2022/09/13 07:10:16;;;;;;;7.22;2.95;;;;;;;16.13;64.90;98609.88;5052316;28;20037;-65
2022/09/13 07:13:01;;;;;;;7.55;3.50;;;;;;;15.81;65.98;98612.88;5037308;28;20041;-65
2022/09/13 07:15:46;;;;;;;6.82;3.17;;;;;;;16.48;64.71;98617.25;5053858;28;20089;-65
2022/09/13 07:18:30;;;;;;;5.35;3.13;;;;;;;16.46;64.63;98621.84;5051199;28;20144;-65
2022/09/13 07:21:17;;;;;;;5.35;2.88;;;;;;;17.11;63.33;98630.66;5024957;28;20151;-65
2022/09/13 07:24:01;;;;;;;5.35;2.92;;;;;;;17.68;61.08;98626.81;5036679;28;20112;-66
2022/09/13 07:26:47;;;;;;;6.18;3.40;;;;;;;17.54;61.17;98620.28;5038329;28;20112;-67
2022/09/13 07:29:31;;;;;;;4.18;3.05;;;;;;;17.51;60.63;98614.44;5033812;28;20444;-65
2022/09/13 07:32:16;;;;;;;4.13;2.75;;;;;;;17.16;61.80;98623.09;5038326;28;20076;-65
2022/09/13 07:35:01;;;;;;;7.93;2.70;;;;;;;17.31;61.54;98623.41;5039052;28;20045;-65
2022/09/13 07:37:45;;;;;;;4.65;3.30;;;;;;;18.00;59.74;98619.25;5052282;28;20041;-65
2022/09/13 07:40:32;;;;;;;5.32;2.67;;;;;;;18.16;58.86;98615.88;5052753;28;20033;-65
2022/09/13 07:43:16;;;;;;;5.68;2.75;;;;;;;18.51;58.20;98615.03;5048499;28;20071;-66
2022/09/13 07:46:02;;;;;;;7.88;3.03;;;;;;;18.61;56.92;98614.88;5037128;28;20052;-64
2022/09/13 07:48:48;;;;;;;5.32;2.30;;;;;;;18.38;57.69;98611.00;5052043;28;20037;-65
2022/09/13 07:51:35;;;;;;;5.43;2.75;;;;;;;18.17;57.96;98612.25;5042464;28;20468;-65
2022/09/13 07:54:19;;;;;;;7.63;2.60;;;;;;;18.61;57.36;98610.41;5038495;28;20175;-65
2022/09/13 07:57:04;;;;;;;3.55;2.30;;;;;;;19.26;55.42;98612.56;5052923;28;20079;-65
2022/09/13 07:59:50;;;;;;;4.55;2.40;;;;;;;18.52;56.89;98616.69;5054194;28;20095;-65
2022/09/13 08:02:36;;;;;;;4.93;2.58;;;;;;;18.56;57.43;98618.00;5053530;28;20049;-65
2022/09/13 08:05:20;;;;;;;6.22;2.70;;;;;;;19.26;56.00;98610.72;5025839;28;20196;-65
2022/09/13 08:08:06;;;;;;;5.35;2.28;;;;;;;19.17;55.73;98615.19;5035220;28;20514;-65
2022/09/13 08:10:50;;;;;;;4.13;1.83;;;;;;;18.94;55.09;98617.63;5039301;28;20040;-67
2022/09/13 08:13:35;;;;;;;3.70;1.73;;;;;;;19.98;53.09;98620.75;5053109;28;20172;-65
2022/09/13 08:16:22;;;;;;;5.70;2.00;;;;;;;20.02;51.90;98617.63;5049458;28;20069;-64
2022/09/13 08:19:09;;;;;;;3.22;1.27;;;;;;;20.62;50.96;98630.53;5052676;28;20059;-64
2022/09/13 08:21:54;;;;;;;4.35;2.03;;;;;;;21.69;48.08;98632.63;5043224;28;20124;-64
2022/09/13 08:24:38;;;;;;;3.78;2.15;;;;;;;21.80;47.69;98628.75;5051488;28;20033;-64
2022/09/13 08:27:23;;;;;;;6.20;2.17;;;;;;;20.60;50.33;98629.88;5052454;28;20115;-64
2022/09/13 08:30:08;;;;;;;3.85;2.15;;;;;;;20.91;49.11;98631.72;5045074;28;20061;-64
2022/09/13 08:32:53;;;;;;;4.65;1.63;;;;;;;20.99;48.06;98633.50;5052354;28;20044;-64
2022/09/13 08:35:38;;;;;;;4.72;1.90;;;;;;;21.53;49.31;98617.63;5052217;28;20037;-64
2022/09/13 08:38:23;;;;;;;2.65;1.70;;;;;;;22.43;45.96;98611.53;5052699;28;20073;-64
2022/09/13 08:41:38;;;;;;;4.20;2.20;;;;;;;22.35;45.96;98611.63;5028065;28;20048;-64
2022/09/13 08:44:35;;;;;;;4.25;1.73;;;;;;;21.73;47.56;98615.28;5049466;28;20112;-64
2022/09/13 08:47:31;;;;;;;3.03;2.08;;;;;;;22.21;46.49;98621.31;5051708;28;20120;-64
2022/09/13 08:50:22;;;;;;;4.45;1.98;;;;;;;22.96;43.99;98618.53;5052079;28;20387;-64
2022/09/13 08:53:07;;;;;;;;;;;;;;;22.11;44.57;98618.91;5033708;28;20107;-65
2022/09/13 08:56:12;;;;;;;3.03;1.60;;;;;;;22.13;45.35;98620.38;5030731;28;20019;-64
2022/09/13 08:59:05;;;;;;;3.72;1.65;;;;;;;22.55;44.40;98624.41;5051691;28;20045;-65
2022/09/13 09:01:56;;;;;;;3.28;1.67;;;;;;;22.52;44.08;98621.06;5052452;28;20061;-65
2022/09/13 09:04:52;;;;;;;2.45;1.75;;;;;;;22.93;44.31;98626.91;5012939;28;20102;-64
2022/09/13 09:07:46;;;;;;;3.83;2.03;;;;;;;22.51;44.72;98618.59;5051620;28;20083;-64
2022/09/13 09:10:41;;;;;;;3.97;2.15;;;;;;;22.82;44.53;98614.88;5033280;28;20044;-65
2022/09/13 09:13:34;;;;;;;5.85;2.40;;;;;;;23.96;41.90;98614.19;5047367;28;20140;-65
2022/09/13 09:16:24;;;;;;;4.97;1.65;;;;;;;24.09;42.03;98608.09;5036624;28;20111;-65
2022/09/13 09:19:22;;;;;;;4.97;1.70;;;;;;;23.79;41.80;98602.16;5046313;28;20040;-64
2022/09/13 09:22:15;;;;;;;2.72;1.95;;;;;;;23.09;43.24;98599.13;5043910;28;20095;-64
2022/09/13 09:24:59;;;;;;;3.67;2.20;;;;;;;23.55;43.08;98598.91;5044826;28;20129;-64
2022/09/13 09:27:44;;;;;;;4.97;2.20;;;;;;;24.29;41.76;98586.00;5051497;28;20041;-63
2022/09/13 09:30:40;;;;;;;3.35;2.03;;;;;;;24.45;41.48;98592.00;5035557;28;20071;-64
2022/09/13 09:33:49;;;;;;;2.88;1.77;;;;;;;24.52;40.71;98584.00;5052278;28;20061;-64
2022/09/13 09:37:12;;;;;;;3.80;2.15;;;;;;;24.94;40.42;98598.16;5027022;28;20075;-64
2022/09/13 09:40:06;;;;;;;3.35;2.20;;;;;;;25.19;39.60;98600.25;4998363;28;20069;-63
2022/09/13 09:42:51;;;;;;;3.55;1.92;;;;;;;24.76;39.87;98592.53;5022362;28;20500;-63
2022/09/13 09:45:40;;;;;;;4.50;1.85;;;;;;;24.89;39.78;98586.38;5030157;28;20175;-63
2022/09/13 09:48:29;;;;;;;2.58;1.80;;;;;;;25.09;39.50;98584.59;5030604;28;20587;-63
2022/09/13 09:51:18;;;;;;;6.03;1.75;;;;;;;24.54;39.85;98580.13;5031981;28;20103;-63
2022/09/13 09:54:05;;;;;;;3.47;1.42;;;;;;;25.64;37.99;98579.25;5030311;28;20073;-62
2022/09/13 09:56:53;;;;;;;4.35;2.00;;;;;;;23.96;40.86;98578.63;5032842;28;20049;-63
2022/09/13 09:59:38;;;;;;;2.90;1.70;;;;;;;25.38;38.18;98575.53;5031755;28;20069;-64
2022/09/13 10:02:22;;;;;;;2.00;1.30;;;;;;;26.47;36.83;98570.75;5021691;28;20290;-64
2022/09/13 10:05:08;;;;;;;3.47;1.30;;;;;;;26.30;36.01;98576.56;5020476;28;20133;-63
2022/09/13 10:07:57;;;;;;;7.20;2.22;;;;;;;27.33;34.79;98562.34;5022601;28;20079;-63
2022/09/13 10:10:51;;;;;;;4.85;1.70;;;;;;;26.60;36.10;98562.63;5029173;28;20045;-64
2022/09/13 10:13:37;;;;;;;2.67;1.40;;;;;;;27.27;35.42;98555.94;5024195;28;20045;-62
2022/09/13 10:16:28;;;;;;;3.25;1.33;;;;;;;27.34;35.42;98555.09;5021092;28;20033;-62
2022/09/13 10:19:23;;;;;;;3.75;0.95;;;;;;;28.20;33.48;98540.13;5029332;28;20042;-62
2022/09/13 10:22:11;;;;;;;2.22;0.90;;;;;;;28.19;34.04;98535.81;5028457;28;20099;-56
2022/09/13 10:25:20;;;;;;;1.50;0.95;;;;;;;28.07;33.52;98533.88;5022421;28;20041;-62
2022/09/13 10:28:13;;;;;;;1.77;1.00;;;;;;;28.06;33.97;98537.59;5026646;28;20121;-64
2022/09/13 10:31:02;;;;;;;2.58;1.00;;;;;;;27.34;34.75;98538.97;5027903;28;20112;-61
2022/09/13 10:33:55;;;;;;;3.90;1.10;;;;;;;27.87;33.50;98528.72;5030479;28;20168;-63
2022/09/13 10:36:56;;;;;;;3.28;1.45;;;;;;;28.14;33.42;98523.00;5008553;28;20038;-61
2022/09/13 10:40:15;;;;;;;2.13;1.02;;;;;;;28.02;34.19;98525.66;5010194;28;20572;-61
2022/09/13 10:43:06;;;;;;;1.67;1.13;;;;;;;28.29;34.40;98541.44;5004236;28;20444;-62
2022/09/13 10:45:51;;;;;;;2.00;1.30;;;;;;;28.84;33.06;98536.97;5005735;28;20121;-61
2022/09/13 10:48:46;;;;;;;3.50;1.40;;;;;;;27.38;34.79;98532.91;5011112;28;20389;-63
2022/09/13 10:51:37;;;;;;;2.45;1.27;;;;;;;26.62;36.33;98541.72;5007827;28;20212;-62
2022/09/13 10:54:24;;;;;;;3.08;1.38;;;;;;;28.28;33.97;98534.44;5009806;28;20038;-63
2022/09/13 10:57:31;;;;;;;4.63;1.40;;;;;;;29.91;32.13;98529.16;5009165;28;20424;-64
2022/09/13 11:00:19;;;;;;;2.67;1.17;;;;;;;28.69;32.87;98533.91;5000062;28;20120;-64
2022/09/13 11:03:12;;;;;;;1.83;1.27;;;;;;;27.74;34.63;98540.44;5006522;28;20042;-64
2022/09/13 11:06:10;;;;;;;4.07;1.60;;;;;;;27.47;34.89;98530.75;4998669;28;20045;-65
2022/09/13 11:09:17;;;;;;;3.38;1.70;;;;;;;27.64;34.83;98528.31;5008947;28;20100;-64
2022/09/13 11:12:30;;;;;;;2.15;1.38;;;;;;;27.78;35.12;98517.41;5005818;28;20049;-63
2022/09/13 11:15:33;;;;;;;2.15;1.13;;;;;;;27.97;34.17;98520.94;5008422;28;20042;-61
2022/09/13 11:18:20;;;;;;;4.40;1.40;;;;;;;28.16;34.46;98516.34;5008222;28;20108;-61
2022/09/13 11:21:34;;;;;;;2.25;1.25;;;;;;;28.99;32.81;98514.16;5006840;28;20365;-61
2022/09/13 11:24:21;;;;;;;2.30;1.25;;;;;;;29.75;31.90;98504.56;5006138;28;20103;-62
2022/09/13 11:27:15;;;;;;;3.47;1.20;;;;;;;30.61;30.52;98508.34;5007306;28;20149;-61
2022/09/13 11:30:18;;;;;;;3.95;1.27;;;;;;;31.09;30.02;98510.75;5004600;28;20077;-62
2022/09/13 11:33:24;;;;;;;1.80;1.23;;;;;;;30.21;30.75;98504.66;5005271;28;20139;-62
2022/09/13 11:36:43;;;;;;;3.15;1.17;;;;;;;28.59;33.13;98513.72;5021164;28;20124;-60
2022/09/13 11:39:55;;;;;;;2.40;1.02;;;;;;;28.78;33.83;98505.56;4986050;28;20474;-60
2022/09/13 11:42:56;;;;;;;2.13;1.00;;;;;;;30.26;31.32;98490.44;4983215;28;20042;-60
2022/09/13 11:46:06;;;;;;;3.47;1.13;;;;;;;28.78;33.23;98498.31;4980883;28;20137;-60
2022/09/13 11:48:56;;;;;;;3.05;1.25;;;;;;;27.76;33.47;98479.97;4964305;28;20051;-61
2022/09/13 11:51:58;;;;;;;;;;;;;;;29.38;32.09;98487.56;4965531;28;20133;-64
2022/09/13 11:54:51;;;;;;;;;;;;;;;29.84;31.40;98478.00;4962501;28;19922;-60
2022/09/13 11:57:41;;;;;;;3.10;1.08;;;;;;;29.69;32.02;98479.34;4967978;28;19918;-60
2022/09/13 12:00:42;;;;;;;2.87;1.03;;;;;;;29.16;32.03;98490.06;4966216;28;20101;-60
2022/09/13 12:03:38;;;;;;;2.20;1.00;;;;;;;29.61;31.22;98488.63;4939439;28;20053;-62
2022/09/13 12:06:40;;;;;;;1.00;0.70;;;;;;;29.88;31.21;98474.59;4967545;28;20062;-59
2022/09/13 12:09:35;;;;;;;1.20;0.70;;;;;;;30.85;30.35;98478.50;4968210;28;20217;-60
2022/09/13 12:12:24;;;;;;;2.33;0.77;;;;;;;30.63;29.24;98470.28;4964791;28;20047;-59
2022/09/13 12:15:16;;;;;;;1.87;1.00;;;;;;;30.00;30.09;98461.06;4967391;28;20079;-60
2022/09/13 12:18:10;;;;;;;1.98;0.70;;;;;;;31.09;29.03;98464.78;4990389;28;20053;-61
2022/09/13 12:21:09;;;;;;;2.85;0.90;;;;;;;30.79;29.10;98455.16;4988877;28;20125;-60
2022/09/13 12:23:59;;;;;;;2.45;1.33;;;;;;;29.99;29.64;98454.03;4991104;28;20042;-60
2022/09/13 12:27:09;;;;;;;1.38;1.08;;;;;;;30.03;30.13;98450.84;5031951;28;20043;-61
2022/09/13 12:30:06;;;;;;;1.27;0.93;;;;;;;30.34;29.40;98441.44;5031314;28;20033;-62
2022/09/13 12:32:52;;;;;;;3.72;1.00;;;;;;;31.59;28.41;98423.53;5029757;28;20388;-62
2022/09/13 12:35:51;;;;;;;3.25;0.93;;;;;;;30.96;28.40;98438.13;5044632;28;20076;-60
2022/09/13 12:39:06;;;;;;;3.07;0.80;;;;;;;31.86;27.28;98421.94;5034081;28;20045;-60
2022/09/13 12:42:05;;;;;;;2.25;0.70;;;;;;;31.36;28.31;98422.69;5052416;28;20041;-61
2022/09/13 12:45:05;;;;;;;2.15;1.05;;;;;;;29.55;30.16;98424.81;5043949;28;20127;-59
2022/09/13 12:47:59;;;;;;;2.45;1.00;;;;;;;29.63;30.00;98418.25;5042211;28;20380;-61
2022/09/13 12:51:06;;;;;;;1.95;1.02;;;;;;;29.11;30.98;98412.59;5050554;28;20488;-62
2022/09/13 12:54:24;;;;;;;1.60;0.90;;;;;;;29.91;30.50;98405.81;5045645;28;20033;-61
2022/09/13 12:57:37;;;;;;;1.15;0.70;;;;;;;29.85;30.43;98406.78;4945931;28;20218;-60
2022/09/13 13:00:48;;;;;;;2.85;0.95;;;;;;;30.52;28.71;98412.53;4951220;29;20039;-60
2022/09/13 13:03:41;;;;;;;3.10;0.80;;;;;;;29.50;30.36;98403.94;4945715;28;20122;-61
2022/09/13 13:06:32;;;;;;;2.00;0.90;;;;;;;29.55;30.09;98395.13;4937508;29;20059;-61
2022/09/13 13:09:20;;;;;;;3.05;0.90;;;;;;;28.66;31.57;98405.84;4959629;28;20054;-59
2022/09/13 13:12:09;;;;;;;1.02;0.77;;;;;;;29.31;30.83;98395.22;4947356;28;21024;-61
2022/09/13 13:14:57;;;;;;;2.53;0.90;;;;;;;30.82;28.69;98394.38;4950910;28;20070;-60
2022/09/13 13:17:49;;;;;;;1.27;0.90;;;;;;;30.20;29.49;98394.19;4962608;28;20398;-59
2022/09/13 13:20:54;;;;;;;0.95;0.73;;;;;;;29.65;29.79;98381.06;4949227;28;20515;-58
2022/09/13 13:23:39;;;;;;;1.90;0.90;;;;;;;30.36;29.43;98384.47;4952141;28;20479;-59
2022/09/13 13:26:59;;;;;;;2.45;0.68;;;;;;;31.42;28.10;98386.53;4932646;29;20051;-61
2022/09/13 13:29:43;;;;;;;3.17;0.90;;;;;;;30.36;29.17;98379.91;4901244;29;20447;-60